createdAt,value
2018-08-31T00:00:56.069Z,4.40
2018-08-31T00:04:36.925Z,3.27
2018-08-31T00:07:16.985Z,3.60
2018-08-31T00:09:58.890Z,3.30
2018-08-31T00:12:37.096Z,2.90
2018-08-31T00:15:06.119Z,2.70
2018-08-31T00:17:35.201Z,3.10
2018-08-31T00:20:03.907Z,3.43
2018-08-31T00:22:32.724Z,2.70
2018-08-31T00:25:14.536Z,3.03
2018-08-31T00:27:54.654Z,3.17
2018-08-31T00:30:35.259Z,2.90
2018-08-31T00:33:15.244Z,2.73
2018-08-31T00:38:06.130Z,3.23
2018-08-31T00:42:49.903Z,2.20
2018-08-31T00:45:28.849Z,3.00
2018-08-31T00:47:58.625Z,2.73
2018-08-31T00:50:27.365Z,3.23
2018-08-31T00:52:56.317Z,2.93
2018-08-31T00:55:24.973Z,2.90
2018-08-31T00:57:56.572Z,2.40
2018-08-31T01:00:25.225Z,2.60
2018-08-31T01:02:53.870Z,3.10
2018-08-31T01:05:22.510Z,3.30
2018-08-31T01:07:51.168Z,2.43
2018-08-31T01:10:21.118Z,2.53
2018-08-31T01:12:49.997Z,2.50
2018-08-31T01:15:18.729Z,2.10
2018-08-31T01:17:47.413Z,2.07
2018-08-31T01:20:16.056Z,1.90
2018-08-31T01:22:44.703Z,2.00
2018-08-31T01:25:13.355Z,2.40
2018-08-31T01:27:42.221Z,2.20
2018-08-31T01:30:10.878Z,1.80
2018-08-31T01:32:39.565Z,2.43
2018-08-31T01:35:08.216Z,2.73
2018-08-31T01:37:36.868Z,2.80
2018-08-31T01:40:05.733Z,2.83
2018-08-31T01:42:34.673Z,2.80
2018-08-31T01:45:03.386Z,3.03
2018-08-31T01:47:32.229Z,2.23
2018-08-31T01:50:00.892Z,3.23
2018-08-31T01:52:29.578Z,2.63
2018-08-31T01:54:58.302Z,2.50
2018-08-31T01:57:27.137Z,3.23
2018-08-31T01:59:55.794Z,2.47
2018-08-31T02:02:24.738Z,2.80
2018-08-31T02:04:54.167Z,2.50
2018-08-31T02:07:22.810Z,2.10
2018-08-31T02:09:51.473Z,2.80
2018-08-31T02:12:20.130Z,2.93
2018-08-31T02:14:48.795Z,3.00
2018-08-31T02:17:17.461Z,2.90
2018-08-31T02:19:46.129Z,2.87
2018-08-31T02:22:14.869Z,3.80
2018-08-31T02:24:43.595Z,3.03
2018-08-31T02:27:12.265Z,3.37
2018-08-31T02:29:40.914Z,3.27
2018-08-31T02:32:09.600Z,3.13
2018-08-31T02:34:38.261Z,3.47
2018-08-31T02:37:06.934Z,4.50
2018-08-31T02:39:35.577Z,3.53
2018-08-31T02:42:04.234Z,3.50
2018-08-31T02:44:32.893Z,3.20
2018-08-31T02:47:01.549Z,3.27
2018-08-31T02:49:30.202Z,3.33
2018-08-31T02:51:58.888Z,3.37
2018-08-31T02:54:27.536Z,3.70
2018-08-31T02:56:56.198Z,3.43
2018-08-31T02:59:24.897Z,3.20
2018-08-31T03:01:53.545Z,3.83
2018-08-31T03:04:22.278Z,4.20
2018-08-31T03:06:50.945Z,3.60
2018-08-31T03:09:19.594Z,2.70
2018-08-31T03:11:48.242Z,3.50
2018-08-31T03:14:17.246Z,3.13
2018-08-31T03:16:45.857Z,4.57
2018-08-31T03:19:14.525Z,3.70
2018-08-31T03:21:43.186Z,3.10
2018-08-31T03:24:11.910Z,3.73
2018-08-31T03:26:40.568Z,3.43
2018-08-31T03:29:09.227Z,3.30
2018-08-31T03:31:37.854Z,2.87
2018-08-31T03:34:06.506Z,4.10
2018-08-31T03:36:35.149Z,3.00
2018-08-31T03:39:04.446Z,3.80
2018-08-31T03:41:33.094Z,3.20
2018-08-31T03:44:01.761Z,3.10
2018-08-31T03:46:30.470Z,3.07
2018-08-31T03:48:59.067Z,3.43
2018-08-31T03:51:27.853Z,3.10
2018-08-31T03:53:56.738Z,3.20
2018-08-31T03:56:25.398Z,3.63
2018-08-31T03:58:54.054Z,3.50
2018-08-31T04:01:22.711Z,3.57
2018-08-31T04:03:51.414Z,3.47
2018-08-31T04:06:20.065Z,3.53
2018-08-31T04:08:48.713Z,3.33
2018-08-31T04:11:17.382Z,3.80
2018-08-31T04:13:46.094Z,3.33
2018-08-31T04:16:14.741Z,3.50
2018-08-31T04:18:43.388Z,4.50
2018-08-31T04:21:12.060Z,3.43
2018-08-31T04:23:40.722Z,3.50
2018-08-31T04:26:09.379Z,3.60
2018-08-31T04:28:38.028Z,3.80
2018-08-31T04:31:06.705Z,3.43
2018-08-31T04:33:35.357Z,3.53
2018-08-31T04:36:04.190Z,4.37
2018-08-31T04:38:32.850Z,4.20
2018-08-31T04:41:01.503Z,3.93
2018-08-31T04:43:30.160Z,3.83
2018-08-31T04:45:58.829Z,3.83
2018-08-31T04:48:27.491Z,4.40
2018-08-31T04:50:56.154Z,4.20
2018-08-31T04:53:24.813Z,4.83
2018-08-31T04:55:53.479Z,4.10
2018-08-31T04:58:22.125Z,4.23
2018-08-31T05:00:50.790Z,4.50
2018-08-31T05:03:19.454Z,4.23
2018-08-31T05:05:48.186Z,4.40
2018-08-31T05:08:16.843Z,4.00
2018-08-31T05:10:45.490Z,4.50
2018-08-31T05:13:14.154Z,5.57
2018-08-31T05:15:42.826Z,5.30
2018-08-31T05:18:11.457Z,7.80
2018-08-31T05:20:40.130Z,6.93
2018-08-31T05:23:08.844Z,6.60
2018-08-31T05:25:37.443Z,7.33
2018-08-31T05:28:06.100Z,6.27
2018-08-31T05:30:34.765Z,5.90
2018-08-31T05:33:03.421Z,5.13
2018-08-31T05:35:32.093Z,5.77
2018-08-31T05:38:00.754Z,6.03
2018-08-31T05:40:29.504Z,4.50
2018-08-31T05:42:58.158Z,4.00
2018-08-31T05:45:27.095Z,4.47
2018-08-31T05:47:55.763Z,4.80
2018-08-31T05:50:24.397Z,5.23
2018-08-31T05:52:53.070Z,5.20
2018-08-31T05:55:21.733Z,5.23
2018-08-31T05:57:50.415Z,5.10
2018-08-31T06:00:19.079Z,5.77
2018-08-31T06:02:47.729Z,5.30
2018-08-31T06:05:16.382Z,5.57
2018-08-31T06:07:45.058Z,5.47
2018-08-31T06:10:13.700Z,5.20
2018-08-31T06:12:42.395Z,5.23
2018-08-31T06:15:11.044Z,5.67
2018-08-31T06:17:39.754Z,6.40
2018-08-31T06:20:08.778Z,4.80
2018-08-31T06:22:37.434Z,5.70
2018-08-31T06:25:06.365Z,6.50
2018-08-31T06:27:35.041Z,5.63
2018-08-31T06:30:03.683Z,6.20
2018-08-31T06:32:32.355Z,5.60
2018-08-31T06:35:01.001Z,5.40
2018-08-31T06:37:29.690Z,5.80
2018-08-31T06:39:58.336Z,5.90
2018-08-31T06:42:26.989Z,5.83
2018-08-31T06:44:55.653Z,7.00
2018-08-31T06:47:24.341Z,5.90
2018-08-31T06:49:53.027Z,6.57
2018-08-31T06:52:21.671Z,7.10
2018-08-31T06:54:50.342Z,5.33
2018-08-31T06:57:19.685Z,5.60
2018-08-31T06:59:48.337Z,4.90
2018-08-31T07:02:17.377Z,5.70
2018-08-31T07:04:46.029Z,5.73
2018-08-31T07:07:14.681Z,5.30
2018-08-31T07:09:43.329Z,5.37
2018-08-31T07:12:11.995Z,4.50
2018-08-31T07:14:40.631Z,5.63
2018-08-31T07:17:09.290Z,5.30
2018-08-31T07:19:37.993Z,6.20
2018-08-31T07:22:06.659Z,6.40
2018-08-31T07:24:35.308Z,6.10
2018-08-31T07:27:03.969Z,5.33
2018-08-31T07:29:32.644Z,6.20
2018-08-31T07:32:01.296Z,4.70
2018-08-31T07:34:29.940Z,4.63
2018-08-31T07:36:58.608Z,5.23
2018-08-31T07:39:27.258Z,4.90
2018-08-31T07:41:55.986Z,4.10
2018-08-31T07:44:24.579Z,3.73
2018-08-31T07:46:53.234Z,4.40
2018-08-31T07:49:21.869Z,4.50
2018-08-31T07:51:50.535Z,4.80
2018-08-31T07:54:19.176Z,4.53
2018-08-31T07:56:47.825Z,5.03
2018-08-31T07:59:16.457Z,4.83
2018-08-31T08:01:45.105Z,4.43
2018-08-31T08:04:13.751Z,4.90
2018-08-31T08:06:42.399Z,3.40
2018-08-31T08:09:11.380Z,3.97
2018-08-31T08:11:40.038Z,3.70
2018-08-31T08:14:08.699Z,3.10
2018-08-31T08:16:37.343Z,2.60
2018-08-31T08:19:06.037Z,2.80
2018-08-31T08:21:34.677Z,2.50
2018-08-31T08:24:03.309Z,3.13
2018-08-31T08:26:31.949Z,5.10
2018-08-31T08:29:00.623Z,3.70
2018-08-31T08:31:29.270Z,3.00
2018-08-31T08:33:57.902Z,2.93
2018-08-31T08:36:26.547Z,3.23
2018-08-31T08:38:55.188Z,3.40
2018-08-31T08:41:23.833Z,3.23
2018-08-31T08:43:52.471Z,3.03
2018-08-31T08:46:21.123Z,2.87
2018-08-31T08:48:49.854Z,2.53
2018-08-31T08:51:18.423Z,2.67
2018-08-31T08:53:47.061Z,2.40
2018-08-31T08:56:15.725Z,2.20
2018-08-31T08:58:44.378Z,2.80
2018-08-31T09:01:13.015Z,2.83
2018-08-31T09:03:41.663Z,1.97
2018-08-31T09:06:10.295Z,1.53
2018-08-31T09:08:38.929Z,1.33
2018-08-31T09:11:07.561Z,1.60
2018-08-31T09:13:36.209Z,1.87
2018-08-31T09:16:04.845Z,1.70
2018-08-31T09:18:33.635Z,1.70
2018-08-31T09:21:02.146Z,1.87
2018-08-31T09:23:30.779Z,1.80
2018-08-31T09:26:01.753Z,1.50
2018-08-31T09:28:30.406Z,2.20
2018-08-31T09:30:59.042Z,2.10
2018-08-31T09:33:27.689Z,1.67
2018-08-31T09:35:56.330Z,1.70
2018-08-31T09:38:25.031Z,1.60
2018-08-31T09:40:53.661Z,2.00
2018-08-31T09:43:22.314Z,1.77
2018-08-31T09:45:50.942Z,1.57
2018-08-31T09:48:19.567Z,2.03
2018-08-31T09:50:48.226Z,2.17
2018-08-31T09:53:16.998Z,2.03
2018-08-31T09:55:45.665Z,1.83
2018-08-31T09:58:14.337Z,1.50
2018-08-31T10:00:48.508Z,1.97
2018-08-31T10:03:22.125Z,1.60
2018-08-31T10:05:51.401Z,1.67
2018-08-31T10:08:20.101Z,1.37
2018-08-31T10:10:48.921Z,1.90
2018-08-31T10:13:17.534Z,1.40
2018-08-31T10:15:46.173Z,1.70
2018-08-31T10:18:14.825Z,1.33
2018-08-31T10:20:43.486Z,1.63
2018-08-31T10:23:12.209Z,1.53
2018-08-31T10:25:40.858Z,1.23
2018-08-31T10:28:09.492Z,1.90
2018-08-31T10:30:38.138Z,1.20
2018-08-31T10:33:07.082Z,1.50
2018-08-31T10:35:35.757Z,1.67
2018-08-31T10:38:04.397Z,1.50
2018-08-31T10:40:33.045Z,1.77
2018-08-31T10:43:01.693Z,1.77
2018-08-31T10:45:30.346Z,1.50
2018-08-31T10:47:58.991Z,1.40
2018-08-31T10:50:27.657Z,1.20
2018-08-31T10:52:56.348Z,1.83
2018-08-31T10:55:24.989Z,1.67
2018-08-31T10:57:53.641Z,1.90
2018-08-31T11:00:22.285Z,1.70
2018-08-31T11:02:50.934Z,2.00
2018-08-31T11:05:19.573Z,1.50
2018-08-31T11:07:48.221Z,1.90
2018-08-31T11:10:16.910Z,1.20
2018-08-31T11:12:45.649Z,1.87
2018-08-31T11:15:14.213Z,1.80
2018-08-31T11:17:42.862Z,1.57
2018-08-31T11:20:11.502Z,1.57
2018-08-31T11:22:40.145Z,1.17
2018-08-31T11:25:08.822Z,1.23
2018-08-31T11:27:37.472Z,1.63
2018-08-31T11:30:06.941Z,1.53
2018-08-31T11:32:35.644Z,1.63
2018-08-31T11:35:04.251Z,1.33
2018-08-31T11:37:32.946Z,1.43
2018-08-31T11:40:01.597Z,1.97
2018-08-31T11:42:30.318Z,1.80
2018-08-31T11:44:58.983Z,1.50
2018-08-31T11:47:27.638Z,1.77
2018-08-31T11:49:56.298Z,2.10
2018-08-31T11:52:24.963Z,2.40
2018-08-31T11:54:53.613Z,1.70
2018-08-31T11:57:22.301Z,2.00
2018-08-31T11:59:50.957Z,2.10
2018-08-31T12:02:20.205Z,1.50
2018-08-31T12:04:48.849Z,1.67
2018-08-31T12:07:17.493Z,1.70
2018-08-31T12:09:46.146Z,1.87
2018-08-31T12:12:14.821Z,1.53
2018-08-31T12:14:43.461Z,1.77
2018-08-31T12:17:12.103Z,1.40
2018-08-31T12:19:40.782Z,1.47
2018-08-31T12:22:09.434Z,1.40
2018-08-31T12:24:38.118Z,1.60
2018-08-31T12:27:06.869Z,1.33
2018-08-31T12:29:35.564Z,1.60
2018-08-31T12:32:04.225Z,2.20
2018-08-31T12:34:32.873Z,1.50
2018-08-31T12:37:01.534Z,1.80
2018-08-31T12:39:30.189Z,1.50
2018-08-31T12:41:58.833Z,1.70
2018-08-31T12:44:27.469Z,1.33
2018-08-31T12:46:56.146Z,1.90
2018-08-31T12:49:24.795Z,1.30
2018-08-31T12:51:53.617Z,1.33
2018-08-31T12:54:22.306Z,1.63
2018-08-31T12:56:50.961Z,1.30
2018-08-31T12:59:19.609Z,1.20
2018-08-31T13:01:48.250Z,1.40
2018-08-31T13:04:16.905Z,1.80
2018-08-31T13:06:45.649Z,1.83
2018-08-31T13:09:14.397Z,1.40
2018-08-31T13:11:43.072Z,1.27
2018-08-31T13:14:11.789Z,0.90
2018-08-31T13:16:40.465Z,1.63
2018-08-31T13:19:09.181Z,1.53
2018-08-31T13:21:37.833Z,1.50
2018-08-31T13:24:06.522Z,1.70
2018-08-31T13:26:35.272Z,1.80
2018-08-31T13:29:04.053Z,1.60
2018-08-31T13:31:32.778Z,1.53
2018-08-31T13:34:01.544Z,1.40
2018-08-31T13:36:30.296Z,1.27
2018-08-31T13:38:58.926Z,1.77
2018-08-31T13:41:27.626Z,1.30
2018-08-31T13:43:56.315Z,1.30
2018-08-31T13:46:24.927Z,1.63
2018-08-31T13:48:53.574Z,1.60
2018-08-31T13:51:22.279Z,1.33
2018-08-31T13:53:51.001Z,1.30
2018-08-31T13:56:19.692Z,1.43
2018-08-31T13:58:48.393Z,1.60
2018-08-31T14:01:17.067Z,1.53
2018-08-31T14:03:45.831Z,1.80
2018-08-31T14:06:14.394Z,1.30
2018-08-31T14:08:43.055Z,1.13
2018-08-31T14:11:11.720Z,1.10
2018-08-31T14:13:40.375Z,1.43
2018-08-31T14:16:09.027Z,1.70
2018-08-31T14:18:37.681Z,1.60
2018-08-31T14:21:06.357Z,1.30
2018-08-31T14:23:34.999Z,1.50
2018-08-31T14:26:03.662Z,1.47
2018-08-31T14:28:32.350Z,1.20
2018-08-31T14:31:01.030Z,1.43
2018-08-31T14:33:29.777Z,1.40
2018-08-31T14:35:58.433Z,1.17
2018-08-31T14:38:27.102Z,1.27
2018-08-31T14:40:55.750Z,1.13
2018-08-31T14:43:24.497Z,1.40
2018-08-31T14:45:53.205Z,1.57
2018-08-31T14:48:21.930Z,1.23
2018-08-31T14:50:50.585Z,2.00
2018-08-31T14:53:19.245Z,9.00
2018-08-31T14:55:47.889Z,1.60
2018-08-31T14:58:16.529Z,1.33
2018-08-31T15:00:45.165Z,1.20
2018-08-31T15:03:13.817Z,1.37
2018-08-31T15:05:42.512Z,1.67
2018-08-31T15:08:11.129Z,1.50
2018-08-31T15:10:39.785Z,1.30
2018-08-31T15:13:08.542Z,1.33
2018-08-31T15:15:37.167Z,1.40
2018-08-31T15:18:05.818Z,1.43
2018-08-31T15:20:34.461Z,1.53
2018-08-31T15:23:03.233Z,1.53
2018-08-31T15:25:31.885Z,1.33
2018-08-31T15:28:00.625Z,1.47
2018-08-31T15:30:29.274Z,1.37
2018-08-31T15:32:57.964Z,1.60
2018-08-31T15:35:26.613Z,1.30
2018-08-31T15:37:55.272Z,1.30
2018-08-31T15:40:24.027Z,1.77
2018-08-31T15:42:52.675Z,1.27
2018-08-31T15:45:21.409Z,1.60
2018-08-31T15:47:50.881Z,1.00
2018-08-31T15:50:19.677Z,1.57
2018-08-31T15:52:48.287Z,1.70
2018-08-31T15:55:16.939Z,1.37
2018-08-31T15:57:45.586Z,1.33
2018-08-31T16:00:14.330Z,1.50
2018-08-31T16:02:42.970Z,1.30
2018-08-31T16:05:11.631Z,1.30
2018-08-31T16:07:40.270Z,1.23
2018-08-31T16:10:09.514Z,1.60
2018-08-31T16:12:38.243Z,1.20
2018-08-31T16:15:07.005Z,1.67
2018-08-31T16:17:35.657Z,1.10
2018-08-31T16:20:04.450Z,1.20
2018-08-31T16:22:33.240Z,1.40
2018-08-31T16:25:01.946Z,1.77
2018-08-31T16:27:30.602Z,1.83
2018-08-31T16:29:59.267Z,6.73
2018-08-31T16:32:27.909Z,1.80
2018-08-31T16:34:56.553Z,1.87
2018-08-31T16:37:25.232Z,1.33
2018-08-31T16:39:53.881Z,1.70
2018-08-31T16:42:22.533Z,1.70
2018-08-31T16:44:51.181Z,1.50
2018-08-31T16:47:19.880Z,1.40
2018-08-31T16:49:48.499Z,1.70
2018-08-31T16:52:17.147Z,1.40
2018-08-31T16:54:45.774Z,1.97
2018-08-31T16:57:14.469Z,1.20
2018-08-31T16:59:43.146Z,1.90
2018-08-31T17:02:11.770Z,1.17
2018-08-31T17:04:40.429Z,1.77
2018-08-31T17:07:09.073Z,2.03
2018-08-31T17:09:37.734Z,1.37
2018-08-31T17:12:06.389Z,1.17
2018-08-31T17:14:35.078Z,1.40
2018-08-31T17:17:03.728Z,1.50
2018-08-31T17:19:32.462Z,1.20
2018-08-31T17:22:01.119Z,1.43
2018-08-31T17:24:29.761Z,1.90
2018-08-31T17:27:04.037Z,1.90
2018-08-31T17:29:36.654Z,1.83
2018-08-31T17:32:10.796Z,1.43
2018-08-31T17:34:44.939Z,1.73
2018-08-31T17:37:19.066Z,1.50
2018-08-31T17:39:47.704Z,1.20
2018-08-31T17:42:16.361Z,2.30
2018-08-31T17:44:45.022Z,1.37
2018-08-31T17:47:13.674Z,1.57
2018-08-31T17:49:42.326Z,1.77
2018-08-31T17:52:11.021Z,1.27
2018-08-31T17:54:39.665Z,1.23
2018-08-31T17:57:08.326Z,1.53
2018-08-31T17:59:36.966Z,1.33
2018-08-31T18:02:05.657Z,1.40
2018-08-31T18:04:34.300Z,1.90
2018-08-31T18:07:02.945Z,1.47
2018-08-31T18:09:31.799Z,1.43
2018-08-31T18:12:00.241Z,1.77
2018-08-31T18:14:28.882Z,1.50
2018-08-31T18:16:57.557Z,1.43
2018-08-31T18:19:26.254Z,1.40
2018-08-31T18:21:54.972Z,1.30
2018-08-31T18:24:23.656Z,1.60
2018-08-31T18:26:52.989Z,1.30
2018-08-31T18:29:21.685Z,1.87
2018-08-31T18:31:50.413Z,1.57
2018-08-31T18:34:19.089Z,1.73
2018-08-31T18:36:47.789Z,1.53
2018-08-31T18:39:16.461Z,1.43
2018-08-31T18:41:46.030Z,1.70
2018-08-31T18:44:14.693Z,1.20
2018-08-31T18:46:43.452Z,1.63
2018-08-31T18:49:12.069Z,1.30
2018-08-31T18:51:40.864Z,1.57
2018-08-31T18:54:09.695Z,1.90
2018-08-31T18:56:38.316Z,1.93
2018-08-31T18:59:06.997Z,1.70
2018-08-31T19:01:35.653Z,1.53
2018-08-31T19:04:04.329Z,1.50
2018-08-31T19:06:33.049Z,1.57
2018-08-31T19:09:01.743Z,1.43
2018-08-31T19:11:30.412Z,1.80
2018-08-31T19:13:59.093Z,1.63
2018-08-31T19:16:27.747Z,1.67
2018-08-31T19:18:56.438Z,1.73
2018-08-31T19:21:25.169Z,1.40
2018-08-31T19:23:53.829Z,1.33
2018-08-31T19:26:22.498Z,1.40
2018-08-31T19:28:51.179Z,1.97
2018-08-31T19:31:19.937Z,1.23
2018-08-31T19:33:48.594Z,1.73
2018-08-31T19:36:17.238Z,1.97
2018-08-31T19:38:45.935Z,1.53
2018-08-31T19:41:15.775Z,1.83
2018-08-31T19:43:44.277Z,1.57
2018-08-31T19:46:12.974Z,1.40
2018-08-31T19:48:41.641Z,1.50
2018-08-31T19:51:10.313Z,1.57
2018-08-31T19:53:39.050Z,1.70
2018-08-31T19:56:07.618Z,2.43
2018-08-31T19:58:36.280Z,1.87
2018-08-31T20:01:05.202Z,2.43
2018-08-31T20:03:33.858Z,1.87
2018-08-31T20:06:02.510Z,1.80
2018-08-31T20:08:31.191Z,2.30
2018-08-31T20:10:59.857Z,2.00
2018-08-31T20:13:28.613Z,2.40
2018-08-31T20:15:57.177Z,2.50
2018-08-31T20:18:25.847Z,2.30
2018-08-31T20:20:54.502Z,2.20
2018-08-31T20:23:23.165Z,2.03
2018-08-31T20:25:51.834Z,3.07
2018-08-31T20:28:20.513Z,2.40
2018-08-31T20:30:49.228Z,3.17
2018-08-31T20:33:17.834Z,3.50
2018-08-31T20:35:46.522Z,4.10
2018-08-31T20:38:15.197Z,3.63
2018-08-31T20:40:43.845Z,3.60
2018-08-31T20:43:12.553Z,2.47
2018-08-31T20:45:41.207Z,2.40
2018-08-31T20:48:10.182Z,2.50
2018-08-31T20:50:38.938Z,2.93
2018-08-31T20:53:07.610Z,2.63
2018-08-31T20:55:36.263Z,2.10
2018-08-31T20:58:04.949Z,2.80
2018-08-31T21:00:33.606Z,3.10
2018-08-31T21:03:02.270Z,2.80
2018-08-31T21:05:30.935Z,2.73
2018-08-31T21:07:59.598Z,3.00
2018-08-31T21:10:28.282Z,2.73
2018-08-31T21:12:56.926Z,3.13
2018-08-31T21:15:25.581Z,3.10
2018-08-31T21:17:54.246Z,3.43
2018-08-31T21:20:22.913Z,3.50
2018-08-31T21:22:51.690Z,2.90
2018-08-31T21:25:20.343Z,3.23
2018-08-31T21:27:49.090Z,3.37
2018-08-31T21:30:17.757Z,3.20
2018-08-31T21:32:46.410Z,3.33
2018-08-31T21:35:15.082Z,3.20
2018-08-31T21:37:43.723Z,3.50
2018-08-31T21:40:12.434Z,3.50
2018-08-31T21:42:41.089Z,2.80
2018-08-31T21:45:09.735Z,3.03
2018-08-31T21:47:38.431Z,2.80
2018-08-31T21:50:07.070Z,3.53
2018-08-31T21:52:35.826Z,3.40
2018-08-31T21:55:04.493Z,3.87
2018-08-31T21:57:33.142Z,3.90
2018-08-31T22:00:01.789Z,3.63
2018-08-31T22:02:30.456Z,3.53
2018-08-31T22:04:59.145Z,3.40
2018-08-31T22:07:27.798Z,3.37
2018-08-31T22:09:56.473Z,4.00
2018-08-31T22:12:25.134Z,3.37
2018-08-31T22:14:53.859Z,3.80
2018-08-31T22:17:22.498Z,3.00
2018-08-31T22:19:51.161Z,3.60
2018-08-31T22:22:19.826Z,3.37
2018-08-31T22:24:48.662Z,2.83
2018-08-31T22:27:17.318Z,2.90
2018-08-31T22:29:45.948Z,2.63
2018-08-31T22:32:14.629Z,2.43
2018-08-31T22:34:43.270Z,2.93
2018-08-31T22:37:11.929Z,2.93
2018-08-31T22:39:40.589Z,2.30
2018-08-31T22:42:09.224Z,2.67
2018-08-31T22:44:37.864Z,2.57
2018-08-31T22:47:06.586Z,2.60
2018-08-31T22:49:35.233Z,3.43
2018-08-31T22:52:03.928Z,2.57
2018-08-31T22:54:32.598Z,2.40
2018-08-31T22:57:01.267Z,3.40
2018-08-31T22:59:29.977Z,3.13
2018-08-31T23:01:58.585Z,3.40
2018-08-31T23:04:27.233Z,3.33
2018-08-31T23:06:55.916Z,3.57
2018-08-31T23:09:24.636Z,3.30
2018-08-31T23:11:53.424Z,2.97
2018-08-31T23:14:22.070Z,3.63
2018-08-31T23:16:50.722Z,3.00
2018-08-31T23:19:19.361Z,3.77
2018-08-31T23:21:48.042Z,2.63
2018-08-31T23:24:16.710Z,2.93
2018-08-31T23:26:45.376Z,3.00
2018-08-31T23:29:14.047Z,3.37
2018-08-31T23:31:42.730Z,2.70
2018-08-31T23:34:11.383Z,3.17
2018-08-31T23:36:40.039Z,3.10
2018-08-31T23:39:09.347Z,3.13
2018-08-31T23:41:38.001Z,3.57
2018-08-31T23:44:06.833Z,3.33
2018-08-31T23:46:35.481Z,3.10
2018-08-31T23:49:04.134Z,3.10
2018-08-31T23:51:32.805Z,4.30
2018-08-31T23:54:01.461Z,4.33
2018-08-31T23:56:30.175Z,3.70
2018-08-31T23:58:58.785Z,3.60
